sensor_id;sensor_type;location;lat;lon;timestamp;P1;durP1;ratioP1;P2;durP2;ratioP2
18455;SDS011;9357;49.900;8.208;2022-10-22T00:01:32;9.97;;;6.60;;
18455;SDS011;9357;49.900;8.208;2022-10-22T00:03:04;8.63;;;6.20;;
18455;SDS011;9357;49.900;8.208;2022-10-22T00:04:36;10.77;;;6.43;;
18455;SDS011;9357;49.900;8.208;2022-10-22T00:06:09;7.83;;;5.33;;
18455;SDS011;9357;49.900;8.208;2022-10-22T00:07:41;8.60;;;5.87;;
18455;SDS011;9357;49.900;8.208;2022-10-22T00:09:14;8.23;;;5.70;;
18455;SDS011;9357;49.900;8.208;2022-10-22T00:10:47;9.63;;;6.53;;
18455;SDS011;9357;49.900;8.208;2022-10-22T00:12:19;7.40;;;5.83;;
18455;SDS011;9357;49.900;8.208;2022-10-22T00:13:52;8.67;;;6.40;;
18455;SDS011;9357;49.900;8.208;2022-10-22T00:15:24;11.40;;;6.80;;
18455;SDS011;9357;49.900;8.208;2022-10-22T00:16:59;8.07;;;6.93;;
18455;SDS011;9357;49.900;8.208;2022-10-22T00:18:31;11.00;;;7.40;;
18455;SDS011;9357;49.900;8.208;2022-10-22T00:20:03;10.17;;;6.40;;
18455;SDS011;9357;49.900;8.208;2022-10-22T00:21:37;8.77;;;6.30;;
18455;SDS011;9357;49.900;8.208;2022-10-22T00:23:10;9.27;;;6.20;;
18455;SDS011;9357;49.900;8.208;2022-10-22T00:24:42;7.93;;;6.80;;
18455;SDS011;9357;49.900;8.208;2022-10-22T00:26:15;11.07;;;6.67;;
18455;SDS011;9357;49.900;8.208;2022-10-22T00:27:47;8.87;;;6.10;;
18455;SDS011;9357;49.900;8.208;2022-10-22T00:29:19;7.93;;;6.20;;
18455;SDS011;9357;49.900;8.208;2022-10-22T00:30:55;9.27;;;6.40;;
18455;SDS011;9357;49.900;8.208;2022-10-22T00:32:29;9.53;;;6.90;;
18455;SDS011;9357;49.900;8.208;2022-10-22T00:34:02;6.87;;;6.17;;
18455;SDS011;9357;49.900;8.208;2022-10-22T00:35:35;11.03;;;6.80;;
18455;SDS011;9357;49.900;8.208;2022-10-22T00:37:07;8.30;;;6.67;;
18455;SDS011;9357;49.900;8.208;2022-10-22T00:38:40;11.07;;;6.03;;
18455;SDS011;9357;49.900;8.208;2022-10-22T00:40:12;7.20;;;6.10;;
18455;SDS011;9357;49.900;8.208;2022-10-22T00:41:45;9.33;;;6.63;;
18455;SDS011;9357;49.900;8.208;2022-10-22T00:43:20;13.07;;;7.10;;
18455;SDS011;9357;49.900;8.208;2022-10-22T00:45:07;9.07;;;6.60;;
18455;SDS011;9357;49.900;8.208;2022-10-22T00:46:47;10.27;;;7.00;;
18455;SDS011;9357;49.900;8.208;2022-10-22T00:48:22;9.53;;;7.17;;
18455;SDS011;9357;49.900;8.208;2022-10-22T00:49:56;10.93;;;6.70;;
18455;SDS011;9357;49.900;8.208;2022-10-22T00:51:31;8.10;;;5.90;;
18455;SDS011;9357;49.900;8.208;2022-10-22T00:53:06;10.63;;;6.30;;
18455;SDS011;9357;49.900;8.208;2022-10-22T00:54:42;9.27;;;5.60;;
18455;SDS011;9357;49.900;8.208;2022-10-22T00:56:14;7.43;;;5.30;;
18455;SDS011;9357;49.900;8.208;2022-10-22T00:57:47;7.60;;;5.23;;
18455;SDS011;9357;49.900;8.208;2022-10-22T00:59:19;8.07;;;5.30;;
18455;SDS011;9357;49.900;8.208;2022-10-22T01:00:52;6.43;;;5.07;;
18455;SDS011;9357;49.900;8.208;2022-10-22T01:02:25;7.53;;;4.90;;
18455;SDS011;9357;49.900;8.208;2022-10-22T01:03:59;7.33;;;4.60;;
18455;SDS011;9357;49.900;8.208;2022-10-22T01:05:35;5.73;;;4.00;;
18455;SDS011;9357;49.900;8.208;2022-10-22T01:07:14;5.83;;;3.73;;
18455;SDS011;9357;49.900;8.208;2022-10-22T01:08:51;6.50;;;3.40;;
18455;SDS011;9357;49.900;8.208;2022-10-22T01:10:34;8.23;;;4.20;;
18455;SDS011;9357;49.900;8.208;2022-10-22T01:12:18;7.90;;;4.67;;
18455;SDS011;9357;49.900;8.208;2022-10-22T01:13:56;5.53;;;4.00;;
18455;SDS011;9357;49.900;8.208;2022-10-22T01:15:36;6.70;;;4.10;;
18455;SDS011;9357;49.900;8.208;2022-10-22T01:17:17;7.13;;;4.90;;
18455;SDS011;9357;49.900;8.208;2022-10-22T01:18:56;6.40;;;5.30;;
18455;SDS011;9357;49.900;8.208;2022-10-22T01:20:45;6.67;;;5.10;;
18455;SDS011;9357;49.900;8.208;2022-10-22T01:22:35;8.47;;;5.67;;
18455;SDS011;9357;49.900;8.208;2022-10-22T01:24:14;9.40;;;6.17;;
18455;SDS011;9357;49.900;8.208;2022-10-22T01:25:56;9.03;;;6.23;;
18455;SDS011;9357;49.900;8.208;2022-10-22T01:27:38;10.07;;;6.97;;
18455;SDS011;9357;49.900;8.208;2022-10-22T01:29:17;8.67;;;6.27;;
18455;SDS011;9357;49.900;8.208;2022-10-22T01:30:52;9.73;;;6.63;;
18455;SDS011;9357;49.900;8.208;2022-10-22T01:32:27;10.47;;;7.60;;
18455;SDS011;9357;49.900;8.208;2022-10-22T01:34:04;9.87;;;6.47;;
18455;SDS011;9357;49.900;8.208;2022-10-22T01:35:39;11.03;;;5.93;;
18455;SDS011;9357;49.900;8.208;2022-10-22T01:37:14;8.27;;;5.53;;
18455;SDS011;9357;49.900;8.208;2022-10-22T01:38:50;8.67;;;4.73;;
18455;SDS011;9357;49.900;8.208;2022-10-22T01:40:23;8.33;;;5.30;;
18455;SDS011;9357;49.900;8.208;2022-10-22T01:41:58;8.07;;;5.10;;
18455;SDS011;9357;49.900;8.208;2022-10-22T01:43:30;7.10;;;5.50;;
18455;SDS011;9357;49.900;8.208;2022-10-22T01:45:10;8.00;;;4.90;;
18455;SDS011;9357;49.900;8.208;2022-10-22T01:46:44;7.50;;;4.50;;
18455;SDS011;9357;49.900;8.208;2022-10-22T01:48:25;6.77;;;4.23;;
18455;SDS011;9357;49.900;8.208;2022-10-22T01:50:12;5.73;;;4.10;;
18455;SDS011;9357;49.900;8.208;2022-10-22T01:51:59;5.90;;;3.60;;
18455;SDS011;9357;49.900;8.208;2022-10-22T01:53:39;7.63;;;3.60;;
18455;SDS011;9357;49.900;8.208;2022-10-22T01:55:23;7.40;;;3.40;;
18455;SDS011;9357;49.900;8.208;2022-10-22T01:57:03;7.10;;;3.40;;
18455;SDS011;9357;49.900;8.208;2022-10-22T01:58:41;8.07;;;3.40;;
18455;SDS011;9357;49.900;8.208;2022-10-22T02:00:24;4.33;;;2.80;;
18455;SDS011;9357;49.900;8.208;2022-10-22T02:01:58;5.63;;;3.20;;
18455;SDS011;9357;49.900;8.208;2022-10-22T02:03:38;4.43;;;2.90;;
18455;SDS011;9357;49.900;8.208;2022-10-22T02:05:15;6.93;;;2.97;;
18455;SDS011;9357;49.900;8.208;2022-10-22T02:06:53;3.13;;;2.43;;
18455;SDS011;9357;49.900;8.208;2022-10-22T02:08:30;6.33;;;3.03;;
18455;SDS011;9357;49.900;8.208;2022-10-22T02:10:05;6.07;;;2.70;;
18455;SDS011;9357;49.900;8.208;2022-10-22T02:11:40;4.20;;;2.50;;
18455;SDS011;9357;49.900;8.208;2022-10-22T02:13:15;5.33;;;2.50;;
18455;SDS011;9357;49.900;8.208;2022-10-22T02:14:52;4.10;;;2.53;;
18455;SDS011;9357;49.900;8.208;2022-10-22T02:16:29;4.13;;;2.93;;
18455;SDS011;9357;49.900;8.208;2022-10-22T02:18:05;4.10;;;2.47;;
18455;SDS011;9357;49.900;8.208;2022-10-22T02:19:41;5.00;;;2.50;;
18455;SDS011;9357;49.900;8.208;2022-10-22T02:21:19;3.93;;;2.03;;
18455;SDS011;9357;49.900;8.208;2022-10-22T02:22:51;3.53;;;2.10;;
18455;SDS011;9357;49.900;8.208;2022-10-22T02:24:25;4.13;;;2.20;;
18455;SDS011;9357;49.900;8.208;2022-10-22T02:25:59;4.73;;;2.30;;
18455;SDS011;9357;49.900;8.208;2022-10-22T02:27:35;2.27;;;2.00;;
18455;SDS011;9357;49.900;8.208;2022-10-22T02:29:14;3.60;;;2.03;;
18455;SDS011;9357;49.900;8.208;2022-10-22T02:30:56;2.93;;;1.87;;
18455;SDS011;9357;49.900;8.208;2022-10-22T02:32:35;2.90;;;1.87;;
18455;SDS011;9357;49.900;8.208;2022-10-22T02:34:13;2.50;;;1.80;;
18455;SDS011;9357;49.900;8.208;2022-10-22T02:35:50;2.27;;;1.50;;
18455;SDS011;9357;49.900;8.208;2022-10-22T02:37:24;2.67;;;1.83;;
18455;SDS011;9357;49.900;8.208;2022-10-22T02:38:57;3.10;;;1.60;;
18455;SDS011;9357;49.900;8.208;2022-10-22T02:40:30;3.10;;;1.70;;
18455;SDS011;9357;49.900;8.208;2022-10-22T02:42:04;2.73;;;1.70;;
18455;SDS011;9357;49.900;8.208;2022-10-22T02:43:40;1.70;;;1.60;;
18455;SDS011;9357;49.900;8.208;2022-10-22T02:45:13;2.67;;;1.80;;
18455;SDS011;9357;49.900;8.208;2022-10-22T02:46:47;3.97;;;2.00;;
18455;SDS011;9357;49.900;8.208;2022-10-22T02:48:22;3.23;;;2.07;;
18455;SDS011;9357;49.900;8.208;2022-10-22T02:49:55;2.47;;;2.00;;
18455;SDS011;9357;49.900;8.208;2022-10-22T02:51:28;4.27;;;2.17;;
18455;SDS011;9357;49.900;8.208;2022-10-22T02:52:59;3.97;;;1.60;;
18455;SDS011;9357;49.900;8.208;2022-10-22T02:54:32;2.03;;;1.80;;
18455;SDS011;9357;49.900;8.208;2022-10-22T02:56:05;2.50;;;1.63;;
18455;SDS011;9357;49.900;8.208;2022-10-22T02:57:37;2.13;;;1.70;;
18455;SDS011;9357;49.900;8.208;2022-10-22T02:59:11;3.43;;;1.80;;
18455;SDS011;9357;49.900;8.208;2022-10-22T03:00:42;1.60;;;1.50;;
18455;SDS011;9357;49.900;8.208;2022-10-22T03:02:15;1.60;;;1.50;;
18455;SDS011;9357;49.900;8.208;2022-10-22T03:03:49;2.30;;;1.67;;
18455;SDS011;9357;49.900;8.208;2022-10-22T03:05:22;3.00;;;2.07;;
18455;SDS011;9357;49.900;8.208;2022-10-22T03:06:55;2.33;;;1.70;;
18455;SDS011;9357;49.900;8.208;2022-10-22T03:08:27;4.27;;;1.53;;
18455;SDS011;9357;49.900;8.208;2022-10-22T03:10:00;3.03;;;1.57;;
18455;SDS011;9357;49.900;8.208;2022-10-22T03:11:33;3.03;;;1.60;;
18455;SDS011;9357;49.900;8.208;2022-10-22T03:13:06;3.03;;;1.70;;
18455;SDS011;9357;49.900;8.208;2022-10-22T03:14:38;3.73;;;1.60;;
18455;SDS011;9357;49.900;8.208;2022-10-22T03:16:11;4.10;;;1.70;;
18455;SDS011;9357;49.900;8.208;2022-10-22T03:17:43;3.67;;;1.60;;
18455;SDS011;9357;49.900;8.208;2022-10-22T03:19:17;2.03;;;1.60;;
18455;SDS011;9357;49.900;8.208;2022-10-22T03:20:52;2.20;;;1.73;;
18455;SDS011;9357;49.900;8.208;2022-10-22T03:22:35;2.13;;;1.60;;
18455;SDS011;9357;49.900;8.208;2022-10-22T03:24:12;3.67;;;1.63;;
18455;SDS011;9357;49.900;8.208;2022-10-22T03:25:48;1.60;;;1.50;;
18455;SDS011;9357;49.900;8.208;2022-10-22T03:27:21;3.57;;;1.67;;
18455;SDS011;9357;49.900;8.208;2022-10-22T03:28:55;1.90;;;1.70;;
18455;SDS011;9357;49.900;8.208;2022-10-22T03:30:27;2.67;;;1.60;;
18455;SDS011;9357;49.900;8.208;2022-10-22T03:31:59;2.70;;;1.77;;
18455;SDS011;9357;49.900;8.208;2022-10-22T03:33:32;2.17;;;1.63;;
18455;SDS011;9357;49.900;8.208;2022-10-22T03:35:06;2.97;;;1.63;;
18455;SDS011;9357;49.900;8.208;2022-10-22T03:36:39;2.13;;;1.60;;
18455;SDS011;9357;49.900;8.208;2022-10-22T03:38:12;2.13;;;1.50;;
18455;SDS011;9357;49.900;8.208;2022-10-22T03:39:46;3.27;;;1.70;;
18455;SDS011;9357;49.900;8.208;2022-10-22T03:41:19;3.40;;;1.67;;
18455;SDS011;9357;49.900;8.208;2022-10-22T03:42:52;2.40;;;1.77;;
18455;SDS011;9357;49.900;8.208;2022-10-22T03:44:24;1.80;;;1.60;;
18455;SDS011;9357;49.900;8.208;2022-10-22T03:45:57;5.47;;;1.57;;
18455;SDS011;9357;49.900;8.208;2022-10-22T03:47:29;4.73;;;1.70;;
18455;SDS011;9357;49.900;8.208;2022-10-22T03:49:02;3.10;;;1.40;;
18455;SDS011;9357;49.900;8.208;2022-10-22T03:50:36;2.63;;;1.30;;
18455;SDS011;9357;49.900;8.208;2022-10-22T03:52:09;2.20;;;1.43;;
18455;SDS011;9357;49.900;8.208;2022-10-22T03:53:42;3.53;;;1.50;;
18455;SDS011;9357;49.900;8.208;2022-10-22T03:55:15;2.73;;;1.67;;
18455;SDS011;9357;49.900;8.208;2022-10-22T03:56:47;3.27;;;1.43;;
18455;SDS011;9357;49.900;8.208;2022-10-22T03:58:20;2.80;;;1.50;;
18455;SDS011;9357;49.900;8.208;2022-10-22T03:59:53;2.90;;;1.60;;
18455;SDS011;9357;49.900;8.208;2022-10-22T04:01:25;1.60;;;1.50;;
18455;SDS011;9357;49.900;8.208;2022-10-22T04:02:58;3.30;;;1.43;;
18455;SDS011;9357;49.900;8.208;2022-10-22T04:04:31;3.53;;;1.47;;
18455;SDS011;9357;49.900;8.208;2022-10-22T04:06:06;1.97;;;1.43;;
18455;SDS011;9357;49.900;8.208;2022-10-22T04:07:40;3.37;;;1.40;;
18455;SDS011;9357;49.900;8.208;2022-10-22T04:09:12;2.40;;;1.53;;
18455;SDS011;9357;49.900;8.208;2022-10-22T04:10:49;1.60;;;1.37;;
18455;SDS011;9357;49.900;8.208;2022-10-22T04:12:22;2.37;;;1.50;;
18455;SDS011;9357;49.900;8.208;2022-10-22T04:13:55;2.27;;;1.50;;
18455;SDS011;9357;49.900;8.208;2022-10-22T04:15:28;3.53;;;1.50;;
18455;SDS011;9357;49.900;8.208;2022-10-22T04:17:00;3.10;;;1.40;;
18455;SDS011;9357;49.900;8.208;2022-10-22T04:18:32;4.50;;;1.77;;
18455;SDS011;9357;49.900;8.208;2022-10-22T04:20:06;2.20;;;1.50;;
18455;SDS011;9357;49.900;8.208;2022-10-22T04:21:41;2.77;;;1.33;;
18455;SDS011;9357;49.900;8.208;2022-10-22T04:23:13;1.73;;;1.53;;
18455;SDS011;9357;49.900;8.208;2022-10-22T04:24:45;2.10;;;1.50;;
18455;SDS011;9357;49.900;8.208;2022-10-22T04:26:18;2.37;;;1.30;;
18455;SDS011;9357;49.900;8.208;2022-10-22T04:27:51;2.10;;;1.10;;
18455;SDS011;9357;49.900;8.208;2022-10-22T04:29:24;1.57;;;1.20;;
18455;SDS011;9357;49.900;8.208;2022-10-22T04:30:57;1.70;;;1.10;;
18455;SDS011;9357;49.900;8.208;2022-10-22T04:32:30;1.27;;;1.10;;
18455;SDS011;9357;49.900;8.208;2022-10-22T04:34:02;1.53;;;1.00;;
18455;SDS011;9357;49.900;8.208;2022-10-22T04:35:36;1.90;;;1.30;;
18455;SDS011;9357;49.900;8.208;2022-10-22T04:37:11;2.33;;;1.40;;
18455;SDS011;9357;49.900;8.208;2022-10-22T04:38:44;3.20;;;1.10;;
18455;SDS011;9357;49.900;8.208;2022-10-22T04:40:18;1.67;;;1.20;;
18455;SDS011;9357;49.900;8.208;2022-10-22T04:41:50;2.43;;;1.17;;
18455;SDS011;9357;49.900;8.208;2022-10-22T04:43:23;1.93;;;1.20;;
18455;SDS011;9357;49.900;8.208;2022-10-22T04:44:56;1.40;;;1.30;;
18455;SDS011;9357;49.900;8.208;2022-10-22T04:46:29;1.60;;;1.27;;
18455;SDS011;9357;49.900;8.208;2022-10-22T04:48:04;1.40;;;1.17;;
18455;SDS011;9357;49.900;8.208;2022-10-22T04:49:37;1.20;;;1.10;;
18455;SDS011;9357;49.900;8.208;2022-10-22T04:51:12;1.70;;;1.07;;
18455;SDS011;9357;49.900;8.208;2022-10-22T04:52:46;1.97;;;1.10;;
18455;SDS011;9357;49.900;8.208;2022-10-22T04:54:18;2.97;;;1.27;;
18455;SDS011;9357;49.900;8.208;2022-10-22T04:55:51;1.70;;;1.00;;
18455;SDS011;9357;49.900;8.208;2022-10-22T04:57:27;1.13;;;1.07;;
18455;SDS011;9357;49.900;8.208;2022-10-22T04:59:02;5.13;;;1.10;;
18455;SDS011;9357;49.900;8.208;2022-10-22T05:00:35;2.47;;;1.43;;
18455;SDS011;9357;49.900;8.208;2022-10-22T05:02:08;1.73;;;1.10;;
18455;SDS011;9357;49.900;8.208;2022-10-22T05:03:41;2.83;;;1.33;;
18455;SDS011;9357;49.900;8.208;2022-10-22T05:05:14;1.63;;;1.00;;
18455;SDS011;9357;49.900;8.208;2022-10-22T05:06:47;1.70;;;1.00;;
18455;SDS011;9357;49.900;8.208;2022-10-22T05:08:21;2.33;;;1.20;;
18455;SDS011;9357;49.900;8.208;2022-10-22T05:09:53;2.20;;;1.00;;
18455;SDS011;9357;49.900;8.208;2022-10-22T05:11:29;4.53;;;1.30;;
18455;SDS011;9357;49.900;8.208;2022-10-22T05:13:03;5.93;;;1.30;;
18455;SDS011;9357;49.900;8.208;2022-10-22T05:14:36;1.80;;;1.07;;
18455;SDS011;9357;49.900;8.208;2022-10-22T05:16:14;2.23;;;1.07;;
18455;SDS011;9357;49.900;8.208;2022-10-22T05:17:48;3.27;;;1.10;;
18455;SDS011;9357;49.900;8.208;2022-10-22T05:19:21;1.73;;;1.10;;
18455;SDS011;9357;49.900;8.208;2022-10-22T05:20:54;2.47;;;1.10;;
18455;SDS011;9357;49.900;8.208;2022-10-22T05:22:27;1.80;;;1.10;;
18455;SDS011;9357;49.900;8.208;2022-10-22T05:24:01;1.60;;;1.20;;
18455;SDS011;9357;49.900;8.208;2022-10-22T05:25:35;2.00;;;1.30;;
18455;SDS011;9357;49.900;8.208;2022-10-22T05:27:08;1.93;;;1.10;;
18455;SDS011;9357;49.900;8.208;2022-10-22T05:28:41;2.07;;;1.10;;
18455;SDS011;9357;49.900;8.208;2022-10-22T05:30:14;1.80;;;1.00;;
18455;SDS011;9357;49.900;8.208;2022-10-22T05:31:46;3.63;;;1.30;;
18455;SDS011;9357;49.900;8.208;2022-10-22T05:33:19;1.57;;;1.13;;
18455;SDS011;9357;49.900;8.208;2022-10-22T05:34:54;2.83;;;1.10;;
18455;SDS011;9357;49.900;8.208;2022-10-22T05:36:27;3.40;;;1.33;;
18455;SDS011;9357;49.900;8.208;2022-10-22T05:37:58;3.93;;;1.20;;
18455;SDS011;9357;49.900;8.208;2022-10-22T05:39:33;2.17;;;1.13;;
18455;SDS011;9357;49.900;8.208;2022-10-22T05:41:08;2.13;;;1.20;;
18455;SDS011;9357;49.900;8.208;2022-10-22T05:42:42;1.90;;;1.27;;
18455;SDS011;9357;49.900;8.208;2022-10-22T05:44:15;2.20;;;1.40;;
18455;SDS011;9357;49.900;8.208;2022-10-22T05:45:48;1.33;;;1.20;;
18455;SDS011;9357;49.900;8.208;2022-10-22T05:47:19;1.87;;;1.10;;
18455;SDS011;9357;49.900;8.208;2022-10-22T05:48:53;3.93;;;1.10;;
18455;SDS011;9357;49.900;8.208;2022-10-22T05:50:27;3.20;;;1.20;;
18455;SDS011;9357;49.900;8.208;2022-10-22T05:51:59;1.93;;;1.17;;
18455;SDS011;9357;49.900;8.208;2022-10-22T05:53:32;2.87;;;1.17;;
18455;SDS011;9357;49.900;8.208;2022-10-22T05:55:08;3.33;;;1.13;;
18455;SDS011;9357;49.900;8.208;2022-10-22T05:56:40;2.37;;;1.27;;
18455;SDS011;9357;49.900;8.208;2022-10-22T05:58:13;1.40;;;1.30;;
18455;SDS011;9357;49.900;8.208;2022-10-22T05:59:45;2.43;;;1.40;;
18455;SDS011;9357;49.900;8.208;2022-10-22T06:01:19;1.10;;;1.10;;
18455;SDS011;9357;49.900;8.208;2022-10-22T06:02:52;1.83;;;1.10;;
18455;SDS011;9357;49.900;8.208;2022-10-22T06:04:25;2.13;;;1.20;;
18455;SDS011;9357;49.900;8.208;2022-10-22T06:05:58;1.47;;;1.00;;
18455;SDS011;9357;49.900;8.208;2022-10-22T06:07:31;2.77;;;1.50;;
18455;SDS011;9357;49.900;8.208;2022-10-22T06:09:05;2.30;;;1.20;;
18455;SDS011;9357;49.900;8.208;2022-10-22T06:10:43;2.30;;;1.20;;
18455;SDS011;9357;49.900;8.208;2022-10-22T06:12:16;1.57;;;1.10;;
18455;SDS011;9357;49.900;8.208;2022-10-22T06:13:49;2.10;;;1.50;;
18455;SDS011;9357;49.900;8.208;2022-10-22T06:15:21;1.50;;;1.30;;
18455;SDS011;9357;49.900;8.208;2022-10-22T06:16:54;2.77;;;1.20;;
18455;SDS011;9357;49.900;8.208;2022-10-22T06:18:30;2.23;;;1.50;;
18455;SDS011;9357;49.900;8.208;2022-10-22T06:20:03;3.00;;;1.33;;
18455;SDS011;9357;49.900;8.208;2022-10-22T06:21:36;2.23;;;1.60;;
18455;SDS011;9357;49.900;8.208;2022-10-22T06:23:09;1.40;;;1.30;;
18455;SDS011;9357;49.900;8.208;2022-10-22T06:24:42;2.17;;;1.57;;
18455;SDS011;9357;49.900;8.208;2022-10-22T06:26:16;2.90;;;1.37;;
18455;SDS011;9357;49.900;8.208;2022-10-22T06:27:49;2.03;;;1.07;;
18455;SDS011;9357;49.900;8.208;2022-10-22T06:29:22;1.37;;;1.10;;
18455;SDS011;9357;49.900;8.208;2022-10-22T06:30:56;1.40;;;1.10;;
18455;SDS011;9357;49.900;8.208;2022-10-22T06:32:29;1.37;;;0.97;;
18455;SDS011;9357;49.900;8.208;2022-10-22T06:34:02;2.43;;;1.07;;
18455;SDS011;9357;49.900;8.208;2022-10-22T06:35:35;2.23;;;1.30;;
18455;SDS011;9357;49.900;8.208;2022-10-22T06:37:08;1.80;;;1.20;;
18455;SDS011;9357;49.900;8.208;2022-10-22T06:38:42;2.53;;;1.07;;
18455;SDS011;9357;49.900;8.208;2022-10-22T06:40:15;5.90;;;1.17;;
18455;SDS011;9357;49.900;8.208;2022-10-22T06:41:50;2.40;;;1.10;;
18455;SDS011;9357;49.900;8.208;2022-10-22T06:43:23;3.00;;;1.20;;
18455;SDS011;9357;49.900;8.208;2022-10-22T06:44:54;2.40;;;0.93;;
18455;SDS011;9357;49.900;8.208;2022-10-22T06:46:27;3.27;;;1.17;;
18455;SDS011;9357;49.900;8.208;2022-10-22T06:48:01;2.93;;;1.20;;
18455;SDS011;9357;49.900;8.208;2022-10-22T06:49:33;2.50;;;1.20;;
18455;SDS011;9357;49.900;8.208;2022-10-22T06:51:07;1.17;;;1.00;;
18455;SDS011;9357;49.900;8.208;2022-10-22T06:52:40;1.43;;;1.17;;
18455;SDS011;9357;49.900;8.208;2022-10-22T06:54:12;2.10;;;1.00;;
18455;SDS011;9357;49.900;8.208;2022-10-22T06:55:45;1.27;;;1.17;;
18455;SDS011;9357;49.900;8.208;2022-10-22T06:57:19;3.17;;;1.20;;
18455;SDS011;9357;49.900;8.208;2022-10-22T06:58:53;2.53;;;1.00;;
18455;SDS011;9357;49.900;8.208;2022-10-22T07:00:27;3.33;;;1.10;;
18455;SDS011;9357;49.900;8.208;2022-10-22T07:01:59;3.17;;;1.03;;
18455;SDS011;9357;49.900;8.208;2022-10-22T07:03:32;1.77;;;1.20;;
18455;SDS011;9357;49.900;8.208;2022-10-22T07:05:06;1.63;;;1.17;;
18455;SDS011;9357;49.900;8.208;2022-10-22T07:06:39;2.30;;;1.20;;
18455;SDS011;9357;49.900;8.208;2022-10-22T07:08:11;4.53;;;1.20;;
18455;SDS011;9357;49.900;8.208;2022-10-22T07:09:44;1.27;;;1.17;;
18455;SDS011;9357;49.900;8.208;2022-10-22T07:11:21;3.23;;;1.40;;
18455;SDS011;9357;49.900;8.208;2022-10-22T07:12:56;4.70;;;1.50;;
18455;SDS011;9357;49.900;8.208;2022-10-22T07:14:29;1.10;;;1.00;;
18455;SDS011;9357;49.900;8.208;2022-10-22T07:16:02;3.23;;;1.37;;
18455;SDS011;9357;49.900;8.208;2022-10-22T07:17:36;1.93;;;1.00;;
18455;SDS011;9357;49.900;8.208;2022-10-22T07:19:13;4.53;;;0.90;;
18455;SDS011;9357;49.900;8.208;2022-10-22T07:20:46;3.70;;;1.30;;
18455;SDS011;9357;49.900;8.208;2022-10-22T07:22:18;1.80;;;1.10;;
18455;SDS011;9357;49.900;8.208;2022-10-22T07:23:51;1.70;;;0.90;;
18455;SDS011;9357;49.900;8.208;2022-10-22T07:25:24;0.83;;;0.80;;
18455;SDS011;9357;49.900;8.208;2022-10-22T07:26:57;2.20;;;0.93;;
18455;SDS011;9357;49.900;8.208;2022-10-22T07:28:31;1.47;;;1.27;;
18455;SDS011;9357;49.900;8.208;2022-10-22T07:30:04;2.13;;;1.00;;
18455;SDS011;9357;49.900;8.208;2022-10-22T07:31:37;2.40;;;1.00;;
18455;SDS011;9357;49.900;8.208;2022-10-22T07:33:10;3.80;;;1.20;;
18455;SDS011;9357;49.900;8.208;2022-10-22T07:34:42;0.70;;;0.70;;
18455;SDS011;9357;49.900;8.208;2022-10-22T07:36:15;1.97;;;1.03;;
18455;SDS011;9357;49.900;8.208;2022-10-22T07:37:49;0.87;;;0.80;;
18455;SDS011;9357;49.900;8.208;2022-10-22T07:39:21;2.47;;;0.80;;
18455;SDS011;9357;49.900;8.208;2022-10-22T07:40:56;2.37;;;0.90;;
18455;SDS011;9357;49.900;8.208;2022-10-22T07:42:29;2.23;;;0.60;;
18455;SDS011;9357;49.900;8.208;2022-10-22T07:44:03;1.77;;;0.80;;
18455;SDS011;9357;49.900;8.208;2022-10-22T07:45:36;2.10;;;0.70;;
18455;SDS011;9357;49.900;8.208;2022-10-22T07:47:09;3.17;;;1.00;;
18455;SDS011;9357;49.900;8.208;2022-10-22T07:48:41;2.27;;;0.60;;
18455;SDS011;9357;49.900;8.208;2022-10-22T07:50:14;1.57;;;0.87;;
18455;SDS011;9357;49.900;8.208;2022-10-22T07:51:47;0.97;;;0.53;;
18455;SDS011;9357;49.900;8.208;2022-10-22T07:53:20;1.50;;;0.87;;
18455;SDS011;9357;49.900;8.208;2022-10-22T07:54:53;1.50;;;0.60;;
18455;SDS011;9357;49.900;8.208;2022-10-22T07:56:25;1.47;;;0.60;;
18455;SDS011;9357;49.900;8.208;2022-10-22T07:57:58;3.60;;;1.03;;
18455;SDS011;9357;49.900;8.208;2022-10-22T07:59:32;0.60;;;0.47;;
18455;SDS011;9357;49.900;8.208;2022-10-22T08:01:04;0.77;;;0.53;;
18455;SDS011;9357;49.900;8.208;2022-10-22T08:02:36;1.93;;;0.97;;
18455;SDS011;9357;49.900;8.208;2022-10-22T08:04:10;0.83;;;0.70;;
18455;SDS011;9357;49.900;8.208;2022-10-22T08:05:43;1.07;;;0.53;;
18455;SDS011;9357;49.900;8.208;2022-10-22T08:07:17;2.47;;;0.70;;
18455;SDS011;9357;49.900;8.208;2022-10-22T08:08:50;1.27;;;0.60;;
18455;SDS011;9357;49.900;8.208;2022-10-22T08:10:23;0.70;;;0.60;;
18455;SDS011;9357;49.900;8.208;2022-10-22T08:11:56;2.00;;;0.80;;
18455;SDS011;9357;49.900;8.208;2022-10-22T08:13:29;1.60;;;0.70;;
18455;SDS011;9357;49.900;8.208;2022-10-22T08:15:03;2.53;;;0.70;;
18455;SDS011;9357;49.900;8.208;2022-10-22T08:16:37;2.10;;;0.53;;
18455;SDS011;9357;49.900;8.208;2022-10-22T08:18:09;1.60;;;0.70;;
18455;SDS011;9357;49.900;8.208;2022-10-22T08:19:42;3.47;;;0.80;;
18455;SDS011;9357;49.900;8.208;2022-10-22T08:21:15;2.00;;;0.70;;
18455;SDS011;9357;49.900;8.208;2022-10-22T08:22:48;4.53;;;0.83;;
18455;SDS011;9357;49.900;8.208;2022-10-22T08:24:21;1.70;;;0.50;;
18455;SDS011;9357;49.900;8.208;2022-10-22T08:25:53;2.33;;;0.63;;
18455;SDS011;9357;49.900;8.208;2022-10-22T08:27:27;1.80;;;0.60;;
18455;SDS011;9357;49.900;8.208;2022-10-22T08:29:00;1.57;;;0.60;;
18455;SDS011;9357;49.900;8.208;2022-10-22T08:30:34;2.53;;;0.73;;
18455;SDS011;9357;49.900;8.208;2022-10-22T08:32:08;0.90;;;0.63;;
18455;SDS011;9357;49.900;8.208;2022-10-22T08:33:41;1.10;;;0.50;;
18455;SDS011;9357;49.900;8.208;2022-10-22T08:35:14;2.30;;;0.70;;
18455;SDS011;9357;49.900;8.208;2022-10-22T08:36:48;1.40;;;0.70;;
18455;SDS011;9357;49.900;8.208;2022-10-22T08:38:20;2.47;;;0.80;;
18455;SDS011;9357;49.900;8.208;2022-10-22T08:39:53;1.50;;;0.73;;
18455;SDS011;9357;49.900;8.208;2022-10-22T08:41:26;1.43;;;0.90;;
18455;SDS011;9357;49.900;8.208;2022-10-22T08:43:04;1.27;;;0.60;;
18455;SDS011;9357;49.900;8.208;2022-10-22T08:45:02;1.10;;;0.50;;
18455;SDS011;9357;49.900;8.208;2022-10-22T08:46:51;0.90;;;0.60;;
18455;SDS011;9357;49.900;8.208;2022-10-22T08:48:40;0.70;;;0.50;;
18455;SDS011;9357;49.900;8.208;2022-10-22T08:50:16;3.23;;;0.70;;
18455;SDS011;9357;49.900;8.208;2022-10-22T08:51:53;1.60;;;0.70;;
18455;SDS011;9357;49.900;8.208;2022-10-22T08:53:28;2.20;;;0.70;;
18455;SDS011;9357;49.900;8.208;2022-10-22T08:55:08;2.17;;;0.60;;
18455;SDS011;9357;49.900;8.208;2022-10-22T08:56:47;0.80;;;0.57;;
18455;SDS011;9357;49.900;8.208;2022-10-22T08:58:31;0.63;;;0.50;;
18455;SDS011;9357;49.900;8.208;2022-10-22T09:00:10;0.60;;;0.60;;
18455;SDS011;9357;49.900;8.208;2022-10-22T09:01:45;1.90;;;0.60;;
18455;SDS011;9357;49.900;8.208;2022-10-22T09:03:24;2.37;;;0.63;;
18455;SDS011;9357;49.900;8.208;2022-10-22T09:05:15;0.63;;;0.60;;
18455;SDS011;9357;49.900;8.208;2022-10-22T09:06:54;0.60;;;0.60;;
18455;SDS011;9357;49.900;8.208;2022-10-22T09:08:29;2.20;;;0.50;;
18455;SDS011;9357;49.900;8.208;2022-10-22T09:10:02;2.43;;;0.63;;
18455;SDS011;9357;49.900;8.208;2022-10-22T09:11:36;1.23;;;0.40;;
18455;SDS011;9357;49.900;8.208;2022-10-22T09:13:10;0.93;;;0.57;;
18455;SDS011;9357;49.900;8.208;2022-10-22T09:14:44;3.43;;;0.90;;
18455;SDS011;9357;49.900;8.208;2022-10-22T09:16:19;1.03;;;0.60;;
18455;SDS011;9357;49.900;8.208;2022-10-22T09:18:02;1.50;;;0.60;;
18455;SDS011;9357;49.900;8.208;2022-10-22T09:19:47;0.43;;;0.43;;
18455;SDS011;9357;49.900;8.208;2022-10-22T09:21:33;0.50;;;0.50;;
18455;SDS011;9357;49.900;8.208;2022-10-22T09:23:23;2.17;;;0.80;;
18455;SDS011;9357;49.900;8.208;2022-10-22T09:25:09;0.80;;;0.50;;
18455;SDS011;9357;49.900;8.208;2022-10-22T09:26:51;1.13;;;0.47;;
18455;SDS011;9357;49.900;8.208;2022-10-22T09:28:24;1.37;;;0.43;;
18455;SDS011;9357;49.900;8.208;2022-10-22T09:29:57;1.07;;;0.70;;
18455;SDS011;9357;49.900;8.208;2022-10-22T09:31:32;0.60;;;0.60;;
18455;SDS011;9357;49.900;8.208;2022-10-22T09:33:10;1.17;;;0.60;;
18455;SDS011;9357;49.900;8.208;2022-10-22T09:34:47;4.07;;;0.70;;
18455;SDS011;9357;49.900;8.208;2022-10-22T09:36:21;0.70;;;0.60;;
18455;SDS011;9357;49.900;8.208;2022-10-22T09:37:55;1.67;;;0.60;;
18455;SDS011;9357;49.900;8.208;2022-10-22T09:39:30;0.50;;;0.50;;